Time;durP1;ratioP1;P1;durP2;ratioP2;P2;SDS_P1;SDS_P2;PMS_P1;PMS_P2;Temp;Humidity;BMP_temperature;BMP_pressure;BME280_temperature;BME280_humidity;BME280_pressure;Samples;Min_cycle;Max_cycle;Signal;HPM_P1;HPM_P2
2022/12/09 07:06:42;;;;;;;42.38;29.85;;;;;;;2.59;100.00;100391.16;5325741;27;1218342;-73
2022/12/09 07:09:18;;;;;;;44.13;32.95;;;;;;;2.58;100.00;100387.59;5343772;28;20038;-73
2022/12/09 07:11:50;;;;;;;46.60;31.13;;;;;;;2.56;100.00;100400.69;5342849;27;20076;-73
2022/12/09 07:14:21;;;;;;;48.80;34.83;;;;;;;2.55;100.00;100399.03;5343344;28;20023;-74
2022/12/09 07:16:52;;;;;;;44.13;34.35;;;;;;;2.72;100.00;100400.97;5325131;27;20057;-74
2022/12/09 07:19:24;;;;;;;50.33;33.88;;;;;;;2.72;100.00;100400.97;5321945;28;20470;-74
2022/12/09 07:21:56;;;;;;;43.35;32.30;;;;;;;2.63;100.00;100400.53;5322634;28;20139;-74
2022/12/09 07:24:27;;;;;;;45.95;32.95;;;;;;;2.70;100.00;100411.31;5321601;28;20023;-74
2022/12/09 07:26:58;;;;;;;41.75;33.28;;;;;;;2.71;100.00;100407.50;5334811;28;20036;-73
2022/12/09 07:29:31;;;;;;;44.00;33.30;;;;;;;2.84;100.00;100415.41;5343444;27;20030;-74
2022/12/09 07:32:03;;;;;;;44.00;31.83;;;;;;;2.92;100.00;100417.72;5342645;27;20092;-73
2022/12/09 07:34:35;;;;;;;44.42;33.15;;;;;;;2.93;100.00;100413.91;5343179;28;20028;-73
2022/12/09 07:37:06;;;;;;;42.83;33.00;;;;;;;2.93;100.00;100416.63;5330430;27;20051;-73
2022/12/09 07:39:37;;;;;;;38.80;30.83;;;;;;;2.93;100.00;100419.38;5333492;28;20423;-73
2022/12/09 07:42:09;;;;;;;39.63;30.83;;;;;;;2.93;100.00;100419.38;5334710;28;20019;-73
2022/12/09 07:44:40;;;;;;;41.08;31.73;;;;;;;2.96;100.00;100420.78;5338001;27;20015;-73
2022/12/09 07:47:11;;;;;;;39.95;31.05;;;;;;;2.96;100.00;100418.88;5339800;28;20019;-73
2022/12/09 07:49:43;;;;;;;38.55;29.13;;;;;;;2.89;100.00;100434.66;5343270;28;20047;-74
2022/12/09 07:52:14;;;;;;;41.45;30.95;;;;;;;2.98;100.00;100433.16;5342863;28;20034;-73
2022/12/09 07:54:45;;;;;;;39.90;30.27;;;;;;;2.92;100.00;100434.16;5340237;27;20160;-73
2022/12/09 07:57:17;;;;;;;41.45;30.98;;;;;;;2.97;100.00;100441.63;5342598;28;20035;-72
2022/12/09 07:59:48;;;;;;;51.85;36.60;;;;;;;4.29;100.00;100431.59;5340876;27;20019;-76
2022/12/09 08:02:19;;;;;;;53.10;37.78;;;;;;;4.77;100.00;100434.56;5342876;28;20027;-70
2022/12/09 08:04:51;;;;;;;49.75;35.15;;;;;;;4.98;100.00;100430.88;5342030;27;20040;-70
2022/12/09 08:07:22;;;;;;;40.42;33.22;;;;;;;5.00;100.00;100436.13;5330584;27;20394;-70
2022/12/09 08:09:55;;;;;;;41.08;32.88;;;;;;;5.14;100.00;100434.59;5342533;27;20036;-70
2022/12/09 08:12:26;;;;;;;38.83;30.35;;;;;;;4.78;100.00;100431.56;5341731;27;20027;-70
2022/12/09 08:15:00;;;;;;;37.45;31.10;;;;;;;5.00;100.00;100431.44;5343759;27;20027;-71
2022/12/09 08:17:31;;;;;;;39.42;30.55;;;;;;;5.02;100.00;100433.94;5331662;28;20034;-70
2022/12/09 08:20:03;;;;;;;36.70;29.08;;;;;;;4.89;100.00;100435.22;5328386;28;20027;-70
2022/12/09 08:22:35;;;;;;;36.45;28.85;;;;;;;4.59;100.00;100430.28;5327643;28;20034;-70
2022/12/09 08:25:06;;;;;;;38.25;29.98;;;;;;;4.26;97.76;100432.13;5307917;28;20539;-70
2022/12/09 08:27:38;;;;;;;40.53;30.67;;;;;;;4.32;99.50;100425.63;5305992;28;20031;-70
2022/12/09 08:30:10;;;;;;;39.70;31.10;;;;;;;4.40;100.00;100431.72;5306930;28;20039;-69
2022/12/09 08:32:42;;;;;;;34.13;28.05;;;;;;;4.41;100.00;100433.38;5307629;28;20032;-70
2022/12/09 08:35:14;;;;;;;35.67;28.50;;;;;;;4.40;100.00;100428.97;5324930;28;20106;-71
2022/12/09 08:37:45;;;;;;;38.72;29.10;;;;;;;4.44;100.00;100428.19;5328187;28;20102;-71
2022/12/09 08:40:16;;;;;;;43.92;35.40;;;;;;;4.28;100.00;100434.63;5327687;28;20035;-71
2022/12/09 08:42:48;;;;;;;44.40;32.08;;;;;;;4.38;100.00;100426.50;5327164;27;20016;-71
2022/12/09 08:45:19;;;;;;;35.28;28.65;;;;;;;4.41;100.00;100427.91;5321295;27;20085;-71
2022/12/09 08:47:50;;;;;;;34.67;28.25;;;;;;;4.38;100.00;100428.44;5306327;28;20678;-71
2022/12/09 08:50:22;;;;;;;37.83;29.40;;;;;;;4.05;97.76;100430.25;5305914;28;20085;-71
2022/12/09 08:52:53;;;;;;;37.92;27.63;;;;;;;4.08;99.94;100418.75;5306227;28;20059;-71
2022/12/09 08:55:25;;;;;;;35.85;27.55;;;;;;;3.90;99.21;100425.41;5315031;28;20034;-71
2022/12/09 08:58:00;;;;;;;49.35;36.13;;;;;;;3.97;99.34;100420.56;5326515;28;20019;-71
2022/12/09 09:00:31;;;;;;;43.13;29.90;;;;;;;3.83;99.47;100422.03;5327012;28;20023;-71
2022/12/09 09:03:03;;;;;;;36.92;29.15;;;;;;;3.79;99.32;100420.88;5325552;28;20386;-71
2022/12/09 09:05:34;;;;;;;35.85;27.95;;;;;;;3.77;98.99;100423.88;5326532;28;20040;-70
2022/12/09 09:08:06;;;;;;;37.95;28.90;;;;;;;3.61;98.24;100435.75;5308819;28;20375;-71
2022/12/09 09:10:37;;;;;;;39.38;29.60;;;;;;;3.85;100.00;100433.56;5315069;28;20055;-71
2022/12/09 09:13:08;;;;;;;40.17;29.65;;;;;;;3.61;99.79;100438.47;5315926;28;20064;-71
2022/12/09 09:15:39;;;;;;;43.45;31.08;;;;;;;3.62;99.02;100438.22;5319306;28;20118;-72
2022/12/09 09:18:11;;;;;;;43.22;29.80;;;;;;;3.57;99.22;100440.06;5325915;28;20024;-72
2022/12/09 09:20:46;;;;;;;36.10;29.75;;;;;;;3.56;99.40;100443.91;5309487;28;20054;-72
2022/12/09 09:23:18;;;;;;;;;;;;;;;3.79;100.00;100454.63;5305795;28;20081;-72
2022/12/09 09:26:09;;;;;;;36.95;28.15;;;;;;;3.81;100.00;100449.72;5304852;28;19912;-72
2022/12/09 09:28:41;;;;;;;41.78;30.10;;;;;;;3.79;100.00;100451.06;5324840;28;20019;-73
2022/12/09 09:31:18;;;;;;;40.35;30.50;;;;;;;3.91;100.00;100446.25;5325605;28;20026;-72
2022/12/09 09:33:50;;;;;;;37.92;27.77;;;;;;;3.82;100.00;100454.13;5326904;27;20023;-72
2022/12/09 09:36:23;;;;;;;40.13;30.02;;;;;;;3.87;100.00;100445.13;5320286;28;20115;-73
2022/12/09 09:38:56;;;;;;;41.17;29.38;;;;;;;3.78;98.60;100447.47;5305015;28;20182;-72
2022/12/09 09:41:49;;;;;;;46.05;30.63;;;;;;;3.78;97.39;100441.97;5316098;28;20532;-72
2022/12/09 09:44:37;;;;;;;32.95;24.67;;;;;;;3.90;96.98;100445.44;5304681;28;20020;-71
2022/12/09 09:47:36;;;;;;;32.95;25.58;;;;;;;3.69;94.85;100446.25;5324677;28;20020;-71
2022/12/09 09:50:32;;;;;;;30.17;24.20;;;;;;;3.77;95.75;100440.34;5325688;28;20446;-70
2022/12/09 09:53:25;;;;;;;30.30;24.77;;;;;;;3.89;95.77;100448.44;5323442;28;20050;-70
2022/12/09 09:56:14;;;;;;;33.72;24.55;;;;;;;4.02;97.65;100436.25;5304372;28;20020;-72
2022/12/09 09:59:19;;;;;;;34.03;24.95;;;;;;;4.01;96.49;100434.59;5319480;28;20424;-71
2022/12/09 10:02:31;;;;;;;27.70;20.88;;;;;;;3.99;95.43;100432.13;5304407;28;20024;-72
2022/12/09 10:05:15;;;;;;;21.73;17.73;;;;;;;3.72;92.18;100436.69;5302513;28;20043;-71
2022/12/09 10:07:52;;;;;;;22.90;18.58;;;;;;;3.74;90.64;100429.88;5302002;28;20475;-73
2022/12/09 10:10:45;;;;;;;23.13;18.30;;;;;;;3.79;90.37;100437.34;5305189;28;20027;-73
2022/12/09 10:13:25;;;;;;;24.70;17.85;;;;;;;3.74;91.02;100435.38;5313075;28;20024;-72
2022/12/09 10:16:08;;;;;;;25.60;20.45;;;;;;;3.66;90.95;100438.56;5325675;28;20035;-72
2022/12/09 10:18:58;;;;;;;26.30;19.52;;;;;;;3.79;92.18;100434.59;5308763;28;20031;-72
2022/12/09 10:21:31;;;;;;;26.25;18.58;;;;;;;3.91;92.90;100441.63;5303992;28;20024;-72
2022/12/09 10:24:25;;;;;;;32.20;24.67;;;;;;;3.94;88.72;100429.31;5304411;28;20028;-72
2022/12/09 10:27:09;;;;;;;27.30;20.67;;;;;;;4.00;89.36;100439.25;5305678;28;20028;-72
2022/12/09 10:29:55;;;;;;;31.73;23.75;;;;;;;4.14;90.19;100434.19;5318267;28;20024;-72
2022/12/09 10:32:32;;;;;;;31.48;24.40;;;;;;;4.19;90.26;100436.97;5304884;28;20032;-69
2022/12/09 10:35:15;;;;;;;28.70;20.98;;;;;;;4.22;89.19;100439.25;5302864;28;20148;-70
2022/12/09 10:37:48;;;;;;;15.07;11.80;;;;;;;4.19;86.25;100425.19;5323371;28;20031;-70
2022/12/09 10:40:34;;;;;;;25.25;17.35;;;;;;;4.39;87.56;100433.63;5324544;28;20019;-69
2022/12/09 10:43:35;;;;;;;21.33;16.70;;;;;;;4.50;85.20;100421.69;5324861;28;20020;-71
2022/12/09 10:46:16;;;;;;;20.58;16.38;;;;;;;4.25;83.16;100432.41;5304466;28;20111;-71
2022/12/09 10:48:47;;;;;;;20.55;15.77;;;;;;;4.19;84.06;100427.94;5320127;28;20028;-71
2022/12/09 10:51:22;;;;;;;20.23;17.02;;;;;;;4.06;83.27;100435.47;5324736;28;20077;-75
2022/12/09 10:53:59;;;;;;;20.75;16.60;;;;;;;4.06;82.57;100429.16;5325099;28;20035;-72
2022/12/09 10:56:35;;;;;;;25.92;19.40;;;;;;;4.09;84.20;100434.97;5324085;28;20066;-71
2022/12/09 10:59:23;;;;;;;27.38;19.38;;;;;;;3.88;85.11;100424.81;5324977;28;20069;-71
2022/12/09 11:02:01;;;;;;;23.60;17.20;;;;;;;4.42;91.44;100427.63;5323848;28;20035;-72
2022/12/09 11:04:38;;;;;;;25.70;17.65;;;;;;;4.36;89.84;100425.94;5324361;28;20020;-73
2022/12/09 11:07:16;;;;;;;20.25;17.08;;;;;;;4.23;84.19;100421.66;5324713;28;20157;-74
2022/12/09 11:10:07;;;;;;;24.50;18.88;;;;;;;4.09;84.74;100417.66;5324433;28;20028;-72
2022/12/09 11:12:39;;;;;;;21.85;17.33;;;;;;;3.98;82.76;100424.94;5314513;28;20020;-70
2022/12/09 11:15:10;;;;;;;24.90;18.02;;;;;;;4.00;83.34;100427.44;5302430;28;20067;-73
2022/12/09 11:17:58;;;;;;;26.35;19.92;;;;;;;4.12;84.35;100422.66;5303124;28;20016;-76
2022/12/09 11:20:32;;;;;;;24.55;18.02;;;;;;;3.99;83.36;100421.13;5308064;28;20031;-74
2022/12/09 11:23:16;;;;;;;50.67;38.28;;;;;;;3.98;83.70;100429.63;5309613;28;20550;-74
2022/12/09 11:25:58;;;;;;;27.40;19.30;;;;;;;3.97;84.14;100428.78;5303119;28;20028;-76
2022/12/09 11:28:35;;;;;;;29.17;20.38;;;;;;;3.93;84.41;100424.88;5317017;28;20118;-73
2022/12/09 11:31:19;;;;;;;25.30;17.63;;;;;;;3.91;85.20;100427.06;5323903;28;20023;-73
2022/12/09 11:33:57;;;;;;;24.80;20.27;;;;;;;3.87;84.99;100424.00;5318474;28;20031;-72
2022/12/09 11:36:40;;;;;;;25.63;17.70;;;;;;;4.32;92.35;100425.63;5309091;28;20040;-75
2022/12/09 11:39:20;;;;;;;26.65;19.20;;;;;;;4.03;85.49;100421.44;5306771;28;20016;-76
2022/12/09 11:42:16;;;;;;;28.27;19.08;;;;;;;4.03;86.56;100416.78;5324863;28;20067;-73
2022/12/09 11:45:05;;;;;;;27.50;20.67;;;;;;;4.03;86.20;100427.75;5323524;28;20035;-71
2022/12/09 11:47:43;;;;;;;28.55;19.85;;;;;;;3.95;84.97;100421.91;5324143;28;20269;-71
2022/12/09 11:50:24;;;;;;;31.52;19.55;;;;;;;3.94;84.84;100418.34;5324509;28;20449;-72
2022/12/09 11:53:06;;;;;;;31.02;22.50;;;;;;;3.98;85.58;100402.19;5320282;28;20360;-73
2022/12/09 11:55:44;;;;;;;28.60;22.50;;;;;;;3.81;86.21;100414.06;5328348;28;20114;-74
2022/12/09 11:58:22;;;;;;;28.23;20.20;;;;;;;3.82;85.59;100415.72;5329238;28;20051;-73
2022/12/09 12:01:10;;;;;;;29.23;19.48;;;;;;;3.87;85.44;100421.25;5309207;28;20024;-73
2022/12/09 12:03:49;;;;;;;28.45;20.23;;;;;;;3.91;84.87;100418.81;5309329;28;20038;-74
2022/12/09 12:06:28;;;;;;;30.13;21.02;;;;;;;3.90;83.41;100409.75;5327423;28;20116;-74
2022/12/09 12:09:10;;;;;;;26.10;18.10;;;;;;;3.96;84.18;100415.31;5323908;28;20050;-73
2022/12/09 12:12:01;;;;;;;26.33;18.67;;;;;;;3.98;83.42;100421.38;5307181;28;20024;-74
2022/12/09 12:14:35;;;;;;;24.65;17.17;;;;;;;4.04;84.06;100406.63;5323745;28;20035;-74
2022/12/09 12:17:20;;;;;;;23.10;17.20;;;;;;;3.98;84.40;100418.63;5324945;28;20028;-73
2022/12/09 12:19:55;;;;;;;26.08;19.38;;;;;;;3.92;83.69;100413.09;5314769;28;20516;-74
2022/12/09 12:22:29;;;;;;;21.85;15.38;;;;;;;3.95;81.98;100416.41;5325922;28;20028;-74
2022/12/09 12:25:38;;;;;;;21.05;16.25;;;;;;;3.97;83.20;100404.09;5327715;28;20363;-74
2022/12/09 12:28:37;;;;;;;22.50;15.65;;;;;;;3.86;83.34;100408.63;5306327;28;20363;-75
2022/12/09 12:31:28;;;;;;;23.23;15.82;;;;;;;3.87;83.48;100414.94;5306761;28;20086;-75
2022/12/09 12:34:37;;;;;;;20.48;16.02;;;;;;;3.89;83.84;100415.53;5321570;28;20036;-74
2022/12/09 12:37:54;;;;;;;22.13;15.50;;;;;;;3.95;82.46;100397.22;5323078;28;20032;-76
2022/12/09 12:40:36;;;;;;;23.05;16.55;;;;;;;3.92;83.29;100399.38;5292930;28;20474;-74
2022/12/09 12:46:57;;;;;;;20.98;14.80;;;;;;;3.88;83.74;100403.69;5271528;28;20036;-78
2022/12/09 12:49:51;;;;;;;28.95;20.73;;;;;;;4.00;83.36;100403.56;5305985;28;20155;-79
2022/12/09 12:52:23;;;;;;;23.02;15.40;;;;;;;3.85;82.00;100396.00;5307594;28;20111;-72
2022/12/09 12:55:34;;;;;;;22.98;15.20;;;;;;;3.95;82.63;100395.28;5305707;28;20131;-74
2022/12/09 12:58:30;;;;;;;23.67;16.40;;;;;;;4.00;83.81;100392.59;5309802;28;20036;-74
2022/12/09 13:01:17;;;;;;;23.60;17.00;;;;;;;3.91;82.37;100392.25;5305668;28;20107;-73
2022/12/09 13:03:52;;;;;;;26.48;16.80;;;;;;;3.82;81.19;100404.72;5312936;27;20811;-71
2022/12/09 13:06:36;;;;;;;22.83;16.25;;;;;;;3.84;81.80;100397.09;5318761;28;20062;-73
2022/12/09 13:09:20;;;;;;;23.63;16.83;;;;;;;3.87;81.40;100391.06;5312795;28;20020;-73
2022/12/09 13:12:17;;;;;;;22.48;16.58;;;;;;;3.88;81.29;100391.91;5305460;28;20111;-73
2022/12/09 13:14:53;;;;;;;27.45;18.73;;;;;;;3.91;79.83;100381.25;5322654;28;20031;-73
2022/12/09 13:17:28;;;;;;;22.40;17.45;;;;;;;3.79;80.98;100387.97;5321649;28;20156;-73
2022/12/09 13:20:02;;;;;;;23.05;16.65;;;;;;;3.89;82.36;100385.34;5327048;28;20027;-73
2022/12/09 13:22:46;;;;;;;23.17;17.52;;;;;;;3.92;80.32;100388.41;5326684;28;20019;-76
2022/12/09 13:25:56;;;;;;;22.58;16.85;;;;;;;3.90;80.20;100387.81;5316200;28;20032;-76
2022/12/09 13:28:42;;;;;;;25.52;17.42;;;;;;;3.86;81.14;100394.91;5250288;28;20037;-77
2022/12/09 13:31:18;;;;;;;21.50;14.18;;;;;;;4.20;84.50;100397.50;5310961;28;20067;-79
2022/12/09 13:34:07;;;;;;;24.50;18.73;;;;;;;4.07;80.87;100395.16;5311688;28;20056;-73
2022/12/09 13:36:41;;;;;;;21.20;16.25;;;;;;;3.82;80.71;100396.50;5318396;28;20036;-71
2022/12/09 13:39:38;;;;;;;24.08;16.58;;;;;;;3.99;81.07;100392.84;5305377;28;20034;-73
2022/12/09 13:45:23;;;;;;;22.23;15.98;;;;;;;4.05;81.27;100392.66;5316264;28;20035;-72
2022/12/09 13:47:57;;;;;;;25.80;17.25;;;;;;;3.95;79.85;100397.22;5323297;27;20493;-71
2022/12/09 13:50:34;;;;;;;24.90;18.38;;;;;;;3.86;79.16;100405.91;5332234;27;20050;-71
2022/12/09 13:53:18;;;;;;;24.88;18.20;;;;;;;3.80;79.59;100401.41;5307803;28;20028;-71
2022/12/09 13:56:03;;;;;;;29.42;17.73;;;;;;;3.67;80.68;100399.06;5323392;28;20019;-70
2022/12/09 13:58:46;;;;;;;24.53;17.97;;;;;;;3.55;80.36;100399.16;5327015;28;20034;-74
2022/12/09 14:01:31;;;;;;;23.65;17.35;;;;;;;3.73;82.81;100400.75;5326308;28;20339;-72
2022/12/09 14:04:11;;;;;;;24.27;17.88;;;;;;;3.61;80.80;100402.84;5317086;28;20046;-75
2022/12/09 14:06:45;;;;;;;25.70;17.55;;;;;;;3.68;81.04;100397.97;5310403;28;20047;-74
2022/12/09 14:09:35;;;;;;;25.30;17.67;;;;;;;3.74;80.87;100396.13;5306892;28;20024;-77
2022/12/09 14:12:11;;;;;;;23.17;16.70;;;;;;;3.72;79.62;100398.31;5314068;28;20028;-71
2022/12/09 14:14:43;;;;;;;31.35;24.48;;;;;;;3.67;79.67;100399.06;5302761;28;20050;-77
2022/12/09 14:17:38;;;;;;;21.13;15.98;;;;;;;3.45;79.10;100401.78;5308842;28;20043;-72
2022/12/09 14:20:27;;;;;;;26.42;19.48;;;;;;;3.51;80.23;100409.00;5305275;28;20021;-73
2022/12/09 14:23:08;;;;;;;25.10;17.98;;;;;;;3.57;80.44;100407.16;5316779;28;20032;-73
2022/12/09 14:26:07;;;;;;;24.92;17.08;;;;;;;3.78;80.78;100408.25;5308688;28;20036;-74
2022/12/09 14:28:50;;;;;;;22.00;16.88;;;;;;;3.69;80.42;100410.59;5306878;28;20047;-72
2022/12/09 14:31:43;;;;;;;23.63;16.67;;;;;;;3.67;79.34;100413.59;5303827;28;20034;-74
2022/12/09 14:34:23;;;;;;;24.50;17.60;;;;;;;3.67;79.64;100412.78;5301437;28;20039;-74
2022/12/09 14:37:14;;;;;;;25.58;17.77;;;;;;;3.77;79.53;100412.91;5325387;28;20106;-74
2022/12/09 14:39:53;;;;;;;23.15;17.17;;;;;;;3.67;77.47;100421.81;5320893;28;20106;-75
2022/12/09 14:42:34;;;;;;;26.08;17.85;;;;;;;3.70;77.63;100417.75;5318015;28;20024;-75
2022/12/09 14:45:34;;;;;;;23.17;16.90;;;;;;;3.75;77.84;100423.28;5305278;28;20508;-74
2022/12/09 14:48:12;;;;;;;33.20;25.38;;;;;;;3.77;78.61;100418.38;5298785;28;20039;-74
2022/12/09 14:50:45;;;;;;;21.90;16.63;;;;;;;3.77;78.84;100420.31;5314722;28;20034;-75
2022/12/09 14:53:23;;;;;;;21.50;16.73;;;;;;;3.66;77.98;100416.63;5325554;28;20027;-75
2022/12/09 14:55:55;;;;;;;27.30;18.95;;;;;;;3.64;78.49;100413.28;5311093;28;20470;-76
2022/12/09 14:58:26;;;;;;;24.30;17.30;;;;;;;3.74;78.27;100410.69;5304046;28;20146;-77
2022/12/09 15:01:01;;;;;;;25.30;18.33;;;;;;;3.72;77.06;100412.84;5322910;28;20027;-76
2022/12/09 15:03:32;;;;;;;23.38;16.73;;;;;;;3.62;77.52;100415.44;5317159;28;20050;-77
2022/12/09 15:06:10;;;;;;;23.38;16.30;;;;;;;3.62;76.44;100412.69;5303637;28;20044;-76
2022/12/09 15:08:41;;;;;;;24.92;16.80;;;;;;;3.67;77.17;100416.34;5303784;28;20024;-77
2022/12/09 15:11:16;;;;;;;22.23;17.20;;;;;;;3.64;76.76;100424.25;5304960;28;20510;-78
2022/12/09 15:13:50;;;;;;;23.75;16.05;;;;;;;3.64;79.45;100425.06;5313641;28;20573;-78
2022/12/09 15:16:24;;;;;;;30.90;23.50;;;;;;;3.72;77.96;100425.72;5319132;28;20035;-75
2022/12/09 15:18:56;;;;;;;28.50;18.23;;;;;;;3.57;77.25;100426.34;5309365;28;20053;-75
2022/12/09 15:21:37;;;;;;;25.63;18.80;;;;;;;3.58;77.87;100430.75;5324809;28;20039;-74
2022/12/09 15:24:13;;;;;;;28.98;20.05;;;;;;;3.53;78.18;100428.78;5324770;28;20050;-75
2022/12/09 15:26:57;;;;;;;;;;;;;;;3.75;79.53;100438.94;5327351;28;20023;-75
2022/12/09 15:29:31;;;;;;;19.60;16.27;;;;;;;3.67;80.10;100437.44;5327198;28;20069;-75
2022/12/09 15:32:02;;;;;;;25.33;18.08;;;;;;;3.59;78.79;100437.91;5330207;28;20339;-76
2022/12/09 15:34:33;;;;;;;35.10;27.48;;;;;;;3.70;79.59;100437.75;5327063;28;20076;-72
2022/12/09 15:37:05;;;;;;;28.73;19.92;;;;;;;3.72;79.73;100437.53;5328167;28;20024;-76
2022/12/09 15:39:52;;;;;;;26.02;18.27;;;;;;;3.64;78.83;100435.22;5327111;27;20027;-76
2022/12/09 15:42:26;;;;;;;24.48;17.35;;;;;;;3.61;78.93;100433.81;5328398;28;20062;-75
2022/12/09 15:45:10;;;;;;;22.88;17.90;;;;;;;3.52;78.04;100442.72;5306737;28;20050;-75
2022/12/09 15:47:51;;;;;;;26.77;18.42;;;;;;;3.62;78.15;100438.22;5320795;28;20019;-73
2022/12/09 15:50:28;;;;;;;21.98;17.60;;;;;;;3.55;77.35;100432.06;5317769;28;20023;-76
2022/12/09 15:53:18;;;;;;;25.75;19.80;;;;;;;3.56;76.97;100435.66;5326403;28;20042;-72
2022/12/09 15:56:12;;;;;;;25.83;16.52;;;;;;;3.52;78.40;100439.97;5316356;28;20081;-71
2022/12/09 15:58:50;;;;;;;29.83;20.35;;;;;;;3.46;77.43;100434.44;5311999;28;20169;-72
2022/12/09 16:01:31;;;;;;;33.10;23.70;;;;;;;3.55;77.59;100436.72;5326596;28;20024;-72
2022/12/09 16:04:05;;;;;;;24.40;18.00;;;;;;;3.56;78.78;100430.19;5320539;28;20040;-73
2022/12/09 16:06:36;;;;;;;27.83;19.80;;;;;;;3.47;77.45;100435.25;5319483;28;20039;-73
2022/12/09 16:09:14;;;;;;;31.92;22.13;;;;;;;3.51;78.26;100438.34;5327005;28;20182;-75
2022/12/09 16:11:50;;;;;;;31.45;21.08;;;;;;;3.43;78.37;100437.69;5323518;28;20039;-72
2022/12/09 16:14:23;;;;;;;26.20;18.90;;;;;;;3.47;79.23;100435.25;5315857;28;20048;-77
2022/12/09 16:17:00;;;;;;;29.55;19.90;;;;;;;3.53;78.98;100430.66;5307907;28;20073;-75
2022/12/09 16:19:32;;;;;;;26.23;18.45;;;;;;;3.38;78.16;100432.13;5314376;28;20437;-77
2022/12/09 16:22:16;;;;;;;25.25;18.83;;;;;;;3.43;78.74;100432.19;5326331;28;20058;-75
2022/12/09 16:24:59;;;;;;;28.42;20.40;;;;;;;3.39;78.15;100428.28;5327500;28;20050;-75
2022/12/09 16:27:35;;;;;;;24.23;18.42;;;;;;;3.34;79.58;100425.47;5318426;28;20462;-71
2022/12/09 16:30:19;;;;;;;24.40;18.17;;;;;;;3.42;80.34;100424.22;5321629;28;20031;-71
2022/12/09 16:32:58;;;;;;;24.08;19.30;;;;;;;3.38;78.92;100417.59;5318676;28;20466;-71
2022/12/09 16:35:36;;;;;;;21.88;16.13;;;;;;;3.31;78.42;100436.94;5328086;28;20096;-72
2022/12/09 16:38:08;;;;;;;23.85;17.23;;;;;;;3.20;77.70;100429.66;5326837;28;20355;-72
